createdAt,value
2023-05-10T00:01:58.360Z,40.21
2023-05-10T00:05:59.186Z,40.51
2023-05-10T00:09:59.348Z,40.43
2023-05-10T00:14:02.158Z,40.48
2023-05-10T00:18:02.828Z,40.94
2023-05-10T00:22:03.719Z,41.14
2023-05-10T00:26:04.468Z,40.66
2023-05-10T00:30:09.148Z,41.03
2023-05-10T00:34:09.536Z,41.38
2023-05-10T00:38:10.644Z,41.10
2023-05-10T00:42:11.045Z,41.67
2023-05-10T00:46:14.548Z,41.33
2023-05-10T00:50:15.712Z,41.63
2023-05-10T00:54:18.338Z,41.17
2023-05-10T00:58:19.121Z,41.35
2023-05-10T01:02:22.115Z,41.59
2023-05-10T01:06:22.361Z,41.61
2023-05-10T01:10:23.161Z,41.51
2023-05-10T01:14:24.749Z,41.27
2023-05-10T01:18:29.127Z,42.01
2023-05-10T01:23:05.888Z,42.38
2023-05-10T01:27:40.174Z,42.19
2023-05-10T01:32:25.097Z,41.52
2023-05-10T01:36:35.082Z,41.63
2023-05-10T01:40:44.701Z,41.58
2023-05-10T01:44:56.826Z,42.03
2023-05-10T01:49:04.347Z,42.13
2023-05-10T01:53:10.612Z,41.81
2023-05-10T01:57:15.248Z,41.59
2023-05-10T02:01:17.602Z,41.62
2023-05-10T02:05:24.072Z,43.00
2023-05-10T02:09:27.747Z,44.67
2023-05-10T02:13:30.907Z,47.04
2023-05-10T02:17:34.457Z,46.35
2023-05-10T02:21:39.499Z,48.09
2023-05-10T02:25:41.555Z,48.25
2023-05-10T02:29:42.702Z,48.30
2023-05-10T02:33:46.110Z,48.89
2023-05-10T02:37:50.729Z,48.66
2023-05-10T02:41:53.854Z,46.98
2023-05-10T02:45:54.380Z,46.95
2023-05-10T02:49:54.818Z,46.13
2023-05-10T02:54:01.086Z,46.30
2023-05-10T02:58:04.926Z,46.06
2023-05-10T03:02:06.352Z,45.18
2023-05-10T03:06:06.942Z,45.44
2023-05-10T03:10:12.312Z,45.22
2023-05-10T03:14:29.148Z,45.11
2023-05-10T03:18:41.178Z,44.86
2023-05-10T03:22:53.795Z,46.21
2023-05-10T03:27:05.572Z,46.97
2023-05-10T03:31:08.227Z,47.24
2023-05-10T03:35:11.932Z,49.01
2023-05-10T03:39:12.435Z,49.59
2023-05-10T03:43:15.321Z,51.88
2023-05-10T03:47:16.128Z,53.27
2023-05-10T03:51:16.889Z,53.33
2023-05-10T03:55:17.383Z,54.38
2023-05-10T03:59:20.655Z,55.09
2023-05-10T04:03:21.474Z,56.52
2023-05-10T04:07:21.912Z,57.66
2023-05-10T04:11:23.130Z,58.12
2023-05-10T04:15:26.366Z,58.26
2023-05-10T04:19:26.912Z,59.66
2023-05-10T04:23:27.323Z,59.46
2023-05-10T04:27:27.803Z,59.66
2023-05-10T04:31:30.818Z,59.99
2023-05-10T04:35:31.139Z,60.83
2023-05-10T04:39:31.348Z,61.52
2023-05-10T04:43:31.877Z,61.32
2023-05-10T04:47:34.665Z,61.12
2023-05-10T04:51:35.395Z,62.40
2023-05-10T04:55:35.997Z,62.45
2023-05-10T04:59:36.196Z,62.12
2023-05-10T05:03:39.242Z,61.83
2023-05-10T05:07:39.620Z,62.46
2023-05-10T05:11:41.038Z,62.23
2023-05-10T05:15:41.329Z,62.56
2023-05-10T05:19:44.145Z,62.04
2023-05-10T05:23:44.368Z,62.27
2023-05-10T05:27:44.589Z,62.71
2023-05-10T05:31:44.907Z,62.69
2023-05-10T05:35:51.875Z,62.83
2023-05-10T05:39:52.766Z,62.97
2023-05-10T05:43:52.991Z,63.52
2023-05-10T05:47:53.331Z,63.56
2023-05-10T05:51:56.259Z,63.97
2023-05-10T05:55:58.302Z,63.30
2023-05-10T05:59:58.480Z,63.58
2023-05-10T06:03:58.878Z,63.81
2023-05-10T06:08:04.153Z,63.42
2023-05-10T06:12:04.374Z,63.28
2023-05-10T06:16:04.868Z,62.95
2023-05-10T06:20:05.163Z,63.73
2023-05-10T06:24:09.706Z,61.83
2023-05-10T06:28:09.887Z,61.23
2023-05-10T06:32:10.520Z,61.16
2023-05-10T06:36:11.111Z,61.08
2023-05-10T06:40:15.877Z,60.96
2023-05-10T06:44:16.727Z,60.65
2023-05-10T06:48:17.024Z,60.71
2023-05-10T06:52:17.248Z,60.33
2023-05-10T06:56:22.653Z,60.65
2023-05-10T07:00:23.894Z,60.52
2023-05-10T07:04:24.181Z,60.28
2023-05-10T07:08:24.396Z,59.86
2023-05-10T07:12:27.319Z,59.21
2023-05-10T07:16:27.538Z,58.17
2023-05-10T07:20:28.255Z,56.88
2023-05-10T07:24:28.683Z,56.44
2023-05-10T07:28:31.483Z,55.55
2023-05-10T07:32:31.824Z,55.09
2023-05-10T07:36:32.135Z,56.25
2023-05-10T07:40:33.164Z,56.98
2023-05-10T07:44:35.985Z,56.32
2023-05-10T07:48:36.113Z,57.42
2023-05-10T07:52:36.743Z,56.56
2023-05-10T07:56:37.424Z,56.96
2023-05-10T08:00:40.696Z,57.27
2023-05-10T08:04:41.280Z,56.61
2023-05-10T08:08:41.940Z,56.33
2023-05-10T08:12:42.383Z,56.95
2023-05-10T08:16:45.248Z,56.92
2023-05-10T08:20:45.579Z,56.57
2023-05-10T08:24:47.156Z,54.68
2023-05-10T08:28:47.652Z,52.15
2023-05-10T08:32:50.626Z,49.41
2023-05-10T08:36:51.697Z,47.82
2023-05-10T08:40:57.679Z,47.09
2023-05-10T08:45:00.904Z,46.46
2023-05-10T08:49:08.814Z,48.60
2023-05-10T08:53:14.355Z,49.75
2023-05-10T08:57:15.017Z,51.66
2023-05-10T09:01:17.533Z,55.02
2023-05-10T09:05:20.715Z,56.04
2023-05-10T09:09:21.860Z,54.83
2023-05-10T09:13:24.851Z,54.07
2023-05-10T09:17:28.356Z,51.23
2023-05-10T09:21:31.810Z,50.24
2023-05-10T09:25:34.364Z,50.09
2023-05-10T09:29:44.413Z,49.30
2023-05-10T09:33:48.879Z,49.46
2023-05-10T09:37:55.062Z,50.90
2023-05-10T09:41:55.332Z,50.82
2023-05-10T09:45:56.728Z,50.34
2023-05-10T09:49:59.493Z,48.40
2023-05-10T09:54:19.533Z,47.08
2023-05-10T09:58:19.837Z,44.89
2023-05-10T10:02:20.753Z,42.34
2023-05-10T10:06:30.219Z,40.57
2023-05-10T10:10:35.696Z,41.65
2023-05-10T10:14:36.454Z,42.78
2023-05-10T10:18:39.902Z,45.36
2023-05-10T10:22:41.431Z,47.16
2023-05-10T10:26:46.614Z,46.13
2023-05-10T10:30:50.851Z,41.70
2023-05-10T10:34:52.051Z,40.20
2023-05-10T10:39:04.392Z,40.30
2023-05-10T10:43:28.587Z,38.87
2023-05-10T10:47:34.435Z,41.81
2023-05-10T10:51:40.567Z,40.24
2023-05-10T10:55:51.244Z,42.84
2023-05-10T10:59:54.346Z,43.38
2023-05-10T11:04:22.295Z,47.92
2023-05-10T11:08:30.211Z,53.72
2023-05-10T11:12:30.481Z,56.13
2023-05-10T11:16:46.509Z,57.77
2023-05-10T11:20:47.998Z,56.63
2023-05-10T11:25:02.118Z,55.61
2023-05-10T11:29:05.574Z,55.43
2023-05-10T11:33:09.187Z,55.58
2023-05-10T11:37:09.538Z,53.64
2023-05-10T11:41:12.570Z,50.21
2023-05-10T11:45:14.357Z,49.70
2023-05-10T11:49:17.475Z,47.11
2023-05-10T11:53:17.887Z,45.63
2023-05-10T11:57:18.119Z,43.99
2023-05-10T12:01:18.463Z,44.05
2023-05-10T12:05:21.699Z,45.05
2023-05-10T12:09:35.337Z,43.81
2023-05-10T12:13:36.142Z,45.65
2023-05-10T12:17:37.784Z,46.29
2023-05-10T12:21:42.540Z,46.71
2023-05-10T12:25:44.286Z,46.95
2023-05-10T12:29:47.941Z,47.72
2023-05-10T12:33:52.718Z,48.28
2023-05-10T12:37:55.612Z,46.13
2023-05-10T12:41:56.309Z,45.35
2023-05-10T12:45:56.942Z,44.40
2023-05-10T12:49:57.226Z,43.27
2023-05-10T12:54:00.041Z,40.91
2023-05-10T12:58:00.620Z,40.78
2023-05-10T13:02:01.821Z,38.79
2023-05-10T13:06:02.017Z,39.72
2023-05-10T13:10:05.276Z,41.38
2023-05-10T13:14:07.208Z,42.20
2023-05-10T13:18:08.084Z,47.87
2023-05-10T13:22:08.546Z,48.22
2023-05-10T13:26:11.813Z,49.89
2023-05-10T13:30:13.959Z,54.08
2023-05-10T13:34:14.300Z,50.99
2023-05-10T13:38:14.911Z,50.85
2023-05-10T13:42:17.941Z,50.78
2023-05-10T13:46:18.877Z,50.20
2023-05-10T13:50:20.065Z,49.92
2023-05-10T13:54:21.508Z,50.50
2023-05-10T13:58:25.184Z,50.18
2023-05-10T14:02:27.046Z,52.36
2023-05-10T14:06:28.147Z,52.22
2023-05-10T14:10:28.410Z,51.45
2023-05-10T14:14:31.321Z,50.99
2023-05-10T14:18:31.838Z,51.36
2023-05-10T14:22:32.055Z,50.92
2023-05-10T14:26:32.444Z,50.50
2023-05-10T14:30:36.523Z,51.96
2023-05-10T14:34:36.875Z,51.51
2023-05-10T14:38:37.308Z,51.24
2023-05-10T14:42:37.579Z,50.78
2023-05-10T14:46:40.672Z,51.85
2023-05-10T14:50:43.726Z,51.34
2023-05-10T14:54:44.207Z,51.14
2023-05-10T14:58:44.382Z,51.74
2023-05-10T15:02:47.301Z,51.52
2023-05-10T15:06:48.312Z,53.81
2023-05-10T15:10:48.869Z,54.58
2023-05-10T15:14:49.160Z,54.30
2023-05-10T15:18:52.161Z,54.58
2023-05-10T15:22:52.422Z,54.81
2023-05-10T15:26:52.582Z,54.75
2023-05-10T15:30:53.512Z,54.94
2023-05-10T15:34:56.823Z,56.30
2023-05-10T15:38:57.796Z,56.00
2023-05-10T15:42:58.457Z,56.53
2023-05-10T15:46:59.653Z,56.07
2023-05-10T15:51:02.948Z,57.42
2023-05-10T15:55:13.122Z,58.37
2023-05-10T15:59:13.512Z,59.50
2023-05-10T16:03:14.707Z,58.86
2023-05-10T16:07:17.562Z,59.04
2023-05-10T16:11:17.841Z,58.62
2023-05-10T16:15:18.488Z,59.66
2023-05-10T16:19:19.124Z,60.61
2023-05-10T16:23:22.879Z,61.42
2023-05-10T16:27:23.232Z,60.45
2023-05-10T16:31:23.614Z,59.87
2023-05-10T16:35:24.251Z,59.07
2023-05-10T16:39:27.265Z,59.65
2023-05-10T16:43:27.424Z,59.18
2023-05-10T16:47:27.694Z,59.12
2023-05-10T16:51:28.040Z,59.40
2023-05-10T16:55:31.022Z,58.83
2023-05-10T16:59:31.795Z,59.53
2023-05-10T17:03:32.129Z,58.40
2023-05-10T17:07:32.436Z,61.18
2023-05-10T17:11:35.789Z,59.85
2023-05-10T17:15:36.166Z,60.37
2023-05-10T17:19:36.573Z,60.84
2023-05-10T17:23:36.742Z,62.15
2023-05-10T17:27:39.687Z,61.69
2023-05-10T17:31:40.330Z,62.20
2023-05-10T17:35:40.609Z,62.61
2023-05-10T17:39:40.903Z,62.34
2023-05-10T17:43:44.744Z,62.27
2023-05-10T17:47:45.252Z,63.25
2023-05-10T17:51:48.123Z,62.80
2023-05-10T17:55:48.501Z,62.89
2023-05-10T17:59:51.488Z,63.06
2023-05-10T18:03:53.064Z,62.52
2023-05-10T18:07:53.560Z,62.61
2023-05-10T18:11:54.169Z,62.49
2023-05-10T18:15:57.096Z,61.92
2023-05-10T18:19:57.554Z,61.58
2023-05-10T18:23:57.847Z,61.50
2023-05-10T18:27:58.306Z,60.83
2023-05-10T18:32:01.132Z,62.19
2023-05-10T18:36:02.692Z,62.82
2023-05-10T18:40:04.959Z,62.29
2023-05-10T18:44:05.678Z,62.30
2023-05-10T18:48:09.166Z,62.16
2023-05-10T18:52:09.619Z,62.07
2023-05-10T18:56:10.466Z,62.61
2023-05-10T19:00:13.279Z,62.62
2023-05-10T19:04:16.365Z,62.73
2023-05-10T19:08:16.831Z,63.05
2023-05-10T19:12:17.220Z,62.52
2023-05-10T19:16:20.272Z,62.37
2023-05-10T19:20:24.434Z,62.38
2023-05-10T19:24:25.979Z,62.25
2023-05-10T19:28:26.766Z,62.02
2023-05-10T19:32:27.196Z,61.33
2023-05-10T19:36:30.073Z,61.59
2023-05-10T19:40:30.413Z,62.14
2023-05-10T19:44:30.849Z,61.81
2023-05-10T19:48:31.903Z,61.73
2023-05-10T19:52:34.862Z,62.00
2023-05-10T19:56:35.674Z,61.74
2023-05-10T20:00:36.240Z,62.15
2023-05-10T20:04:36.799Z,62.36
2023-05-10T20:08:39.660Z,62.08
2023-05-10T20:12:39.937Z,62.08
2023-05-10T20:16:40.389Z,61.52
2023-05-10T20:20:40.825Z,60.63
2023-05-10T20:24:45.500Z,60.27
2023-05-10T20:28:46.770Z,59.65
2023-05-10T20:32:48.014Z,60.31
2023-05-10T20:36:48.370Z,60.50
2023-05-10T20:40:51.390Z,61.11
2023-05-10T20:44:51.977Z,61.92
2023-05-10T20:48:52.190Z,61.85
2023-05-10T20:52:53.218Z,61.89
2023-05-10T20:56:56.379Z,61.67
2023-05-10T21:00:56.662Z,61.64
2023-05-10T21:04:57.910Z,62.01
2023-05-10T21:08:58.503Z,61.37
2023-05-10T21:13:01.609Z,60.65
2023-05-10T21:17:01.793Z,60.51
2023-05-10T21:21:02.219Z,60.94
2023-05-10T21:25:02.484Z,61.68
2023-05-10T21:29:05.400Z,61.25
2023-05-10T21:33:06.013Z,61.40
2023-05-10T21:37:06.291Z,61.24
2023-05-10T21:41:10.404Z,60.74
2023-05-10T21:45:14.605Z,61.18
2023-05-10T21:49:14.865Z,60.27
2023-05-10T21:53:15.151Z,60.26
2023-05-10T21:57:15.429Z,60.14
2023-05-10T22:01:18.370Z,60.38
2023-05-10T22:05:19.611Z,60.50
2023-05-10T22:09:21.990Z,61.54
2023-05-10T22:13:22.222Z,62.72
2023-05-10T22:17:25.126Z,63.15
2023-05-10T22:21:26.063Z,62.90
2023-05-10T22:25:26.268Z,63.38
2023-05-10T22:29:26.574Z,63.18
2023-05-10T22:33:29.388Z,63.37
2023-05-10T22:37:29.657Z,63.03
2023-05-10T22:41:29.859Z,63.23
2023-05-10T22:45:30.602Z,64.09
2023-05-10T22:49:33.509Z,63.69
2023-05-10T22:53:33.739Z,63.76
2023-05-10T22:57:34.517Z,63.92
2023-05-10T23:01:34.876Z,64.44
2023-05-10T23:05:37.769Z,64.67
2023-05-10T23:09:37.926Z,64.74
2023-05-10T23:13:38.098Z,64.70
2023-05-10T23:17:38.214Z,64.97
2023-05-10T23:21:41.224Z,65.01
2023-05-10T23:25:41.818Z,64.61
2023-05-10T23:29:42.091Z,64.12
2023-05-10T23:33:42.255Z,63.80
2023-05-10T23:37:45.812Z,64.07
2023-05-10T23:41:46.135Z,64.22
2023-05-10T23:45:46.743Z,64.46
2023-05-10T23:49:47.106Z,64.58
2023-05-10T23:53:49.996Z,64.78
2023-05-10T23:57:50.200Z,64.32
